sensor_id;sensor_type;location;lat;lon;timestamp;pressure;altitude;pressure_sealevel;temperature;humidity
53932;BME280;39844;52.496;13.482;2024-03-17T00:01:54;101949.34;;;5.84;74.36
53932;BME280;39844;52.496;13.482;2024-03-17T00:04:19;101960.69;;;5.85;75.23
53932;BME280;39844;52.496;13.482;2024-03-17T00:06:45;101952.72;;;5.82;74.77
53932;BME280;39844;52.496;13.482;2024-03-17T00:09:10;101973.63;;;5.83;75.65
53932;BME280;39844;52.496;13.482;2024-03-17T00:11:36;101970.97;;;5.82;75.10
53932;BME280;39844;52.496;13.482;2024-03-17T00:14:02;101974.38;;;5.81;75.75
53932;BME280;39844;52.496;13.482;2024-03-17T00:16:27;101969.19;;;5.81;75.79
53932;BME280;39844;52.496;13.482;2024-03-17T00:18:53;101970.03;;;5.80;75.80
53932;BME280;39844;52.496;13.482;2024-03-17T00:21:18;101981.28;;;5.79;75.06
53932;BME280;39844;52.496;13.482;2024-03-17T00:23:44;101976.06;;;5.79;75.24
53932;BME280;39844;52.496;13.482;2024-03-17T00:26:09;101964.72;;;5.77;75.15
53932;BME280;39844;52.496;13.482;2024-03-17T00:28:34;101967.25;;;5.75;76.28
53932;BME280;39844;52.496;13.482;2024-03-17T00:31:03;101957.59;;;5.72;76.74
53932;BME280;39844;52.496;13.482;2024-03-17T00:33:28;101966.19;;;5.70;75.40
53932;BME280;39844;52.496;13.482;2024-03-17T00:35:53;101967.97;;;5.71;76.54
53932;BME280;39844;52.496;13.482;2024-03-17T00:38:19;101974.84;;;5.69;75.55
53932;BME280;39844;52.496;13.482;2024-03-17T00:40:44;101979.19;;;5.68;75.30
53932;BME280;39844;52.496;13.482;2024-03-17T00:43:09;101980.00;;;5.67;75.65
53932;BME280;39844;52.496;13.482;2024-03-17T00:45:35;101992.13;;;5.67;76.22
53932;BME280;39844;52.496;13.482;2024-03-17T00:48:00;101976.47;;;5.65;75.21
53932;BME280;39844;52.496;13.482;2024-03-17T00:50:26;101979.94;;;5.66;76.27
53932;BME280;39844;52.496;13.482;2024-03-17T00:52:51;101986.75;;;5.62;75.58
53932;BME280;39844;52.496;13.482;2024-03-17T00:55:16;101975.44;;;5.62;76.22
53932;BME280;39844;52.496;13.482;2024-03-17T00:57:42;101972.91;;;5.63;77.03
53932;BME280;39844;52.496;13.482;2024-03-17T01:00:08;101967.56;;;5.59;76.38
53932;BME280;39844;52.496;13.482;2024-03-17T01:02:33;101972.69;;;5.57;77.12
53932;BME280;39844;52.496;13.482;2024-03-17T01:04:58;101980.50;;;5.57;77.83
53932;BME280;39844;52.496;13.482;2024-03-17T01:07:24;101981.28;;;5.55;77.42
53932;BME280;39844;52.496;13.482;2024-03-17T01:09:49;101968.13;;;5.52;77.54
53932;BME280;39844;52.496;13.482;2024-03-17T01:12:14;101976.72;;;5.49;77.62
53932;BME280;39844;52.496;13.482;2024-03-17T01:14:40;101987.09;;;5.48;77.25
53932;BME280;39844;52.496;13.482;2024-03-17T01:17:05;101980.88;;;5.44;76.64
53932;BME280;39844;52.496;13.482;2024-03-17T01:19:31;101977.41;;;5.44;76.64
53932;BME280;39844;52.496;13.482;2024-03-17T01:21:57;101979.16;;;5.45;77.02
53932;BME280;39844;52.496;13.482;2024-03-17T01:24:22;101978.28;;;5.44;77.00
53932;BME280;39844;52.496;13.482;2024-03-17T01:26:48;101981.66;;;5.42;77.12
53932;BME280;39844;52.496;13.482;2024-03-17T01:29:13;101972.91;;;5.40;76.45
53932;BME280;39844;52.496;13.482;2024-03-17T01:31:39;101971.06;;;5.37;77.72
53932;BME280;39844;52.496;13.482;2024-03-17T01:34:04;101995.41;;;5.38;78.17
53932;BME280;39844;52.496;13.482;2024-03-17T01:36:29;101981.44;;;5.36;77.29
53932;BME280;39844;52.496;13.482;2024-03-17T01:38:55;101978.84;;;5.36;78.26
53932;BME280;39844;52.496;13.482;2024-03-17T01:41:20;101977.91;;;5.34;77.56
53932;BME280;39844;52.496;13.482;2024-03-17T01:43:46;101979.63;;;5.33;77.87
53932;BME280;39844;52.496;13.482;2024-03-17T01:46:14;101969.97;;;5.31;78.29
53932;BME280;39844;52.496;13.482;2024-03-17T01:48:40;101961.22;;;5.29;79.17
53932;BME280;39844;52.496;13.482;2024-03-17T01:51:07;101967.25;;;5.28;79.11
53932;BME280;39844;52.496;13.482;2024-03-17T01:53:33;101968.06;;;5.27;79.17
53932;BME280;39844;52.496;13.482;2024-03-17T01:56:00;101972.28;;;5.23;79.22
53932;BME280;39844;52.496;13.482;2024-03-17T01:58:25;101971.34;;;5.21;78.76
53932;BME280;39844;52.496;13.482;2024-03-17T02:00:52;101971.28;;;5.20;79.08
53932;BME280;39844;52.496;13.482;2024-03-17T02:03:18;101964.31;;;5.19;78.92
53932;BME280;39844;52.496;13.482;2024-03-17T02:05:47;101973.84;;;5.18;79.57
53932;BME280;39844;52.496;13.482;2024-03-17T02:08:12;101971.16;;;5.17;79.06
53932;BME280;39844;52.496;13.482;2024-03-17T02:10:38;101973.72;;;5.15;79.30
53932;BME280;39844;52.496;13.482;2024-03-17T02:13:03;101976.19;;;5.12;79.50
53932;BME280;39844;52.496;13.482;2024-03-17T02:15:30;101980.50;;;5.11;81.16
53932;BME280;39844;52.496;13.482;2024-03-17T02:17:55;101976.91;;;5.08;79.96
53932;BME280;39844;52.496;13.482;2024-03-17T02:20:21;101988.09;;;5.05;80.04
53932;BME280;39844;52.496;13.482;2024-03-17T02:22:46;101985.41;;;5.04;80.15
53932;BME280;39844;52.496;13.482;2024-03-17T02:25:11;101974.97;;;5.02;80.67
53932;BME280;39844;52.496;13.482;2024-03-17T02:27:37;101972.22;;;4.99;80.34
53932;BME280;39844;52.496;13.482;2024-03-17T02:30:03;101976.41;;;4.96;80.15
53932;BME280;39844;52.496;13.482;2024-03-17T02:32:29;101974.66;;;4.95;80.47
53932;BME280;39844;52.496;13.482;2024-03-17T02:34:54;101975.44;;;4.92;81.43
53932;BME280;39844;52.496;13.482;2024-03-17T02:37:19;101975.44;;;4.92;81.33
53932;BME280;39844;52.496;13.482;2024-03-17T02:39:45;101978.84;;;4.91;81.77
53932;BME280;39844;52.496;13.482;2024-03-17T02:42:10;101984.06;;;4.91;82.68
53932;BME280;39844;52.496;13.482;2024-03-17T02:44:37;101978.72;;;4.88;82.31
53932;BME280;39844;52.496;13.482;2024-03-17T02:47:04;101978.63;;;4.85;81.39
53932;BME280;39844;52.496;13.482;2024-03-17T02:49:31;101976.84;;;4.84;82.24
53932;BME280;39844;52.496;13.482;2024-03-17T02:51:57;101981.03;;;4.81;82.21
53932;BME280;39844;52.496;13.482;2024-03-17T02:54:22;101978.34;;;4.78;81.94
53932;BME280;39844;52.496;13.482;2024-03-17T02:56:50;101973.91;;;4.75;82.72
53932;BME280;39844;52.496;13.482;2024-03-17T02:59:16;101981.69;;;4.75;82.53
53932;BME280;39844;52.496;13.482;2024-03-17T03:01:41;101973.69;;;4.71;82.35
53932;BME280;39844;52.496;13.482;2024-03-17T03:04:06;101982.47;;;4.73;83.80
53932;BME280;39844;52.496;13.482;2024-03-17T03:06:33;101977.94;;;4.69;82.77
53932;BME280;39844;52.496;13.482;2024-03-17T03:08:58;101977.00;;;4.67;83.68
53932;BME280;39844;52.496;13.482;2024-03-17T03:11:24;101979.56;;;4.65;84.04
53932;BME280;39844;52.496;13.482;2024-03-17T03:13:49;101976.88;;;4.64;83.20
53932;BME280;39844;52.496;13.482;2024-03-17T03:16:15;101978.53;;;4.62;83.57
53932;BME280;39844;52.496;13.482;2024-03-17T03:18:41;101968.00;;;4.59;84.09
53932;BME280;39844;52.496;13.482;2024-03-17T03:21:07;101977.50;;;4.58;83.90
53932;BME280;39844;52.496;13.482;2024-03-17T03:23:32;101977.38;;;4.55;84.78
53932;BME280;39844;52.496;13.482;2024-03-17T03:25:59;101986.03;;;4.54;84.26
53932;BME280;39844;52.496;13.482;2024-03-17T03:28:26;101984.13;;;4.50;84.51
53932;BME280;39844;52.496;13.482;2024-03-17T03:30:52;101981.50;;;4.50;84.42
53932;BME280;39844;52.496;13.482;2024-03-17T03:33:18;101983.94;;;4.45;84.70
53932;BME280;39844;52.496;13.482;2024-03-17T03:35:44;101984.78;;;4.44;85.45
53932;BME280;39844;52.496;13.482;2024-03-17T03:38:09;101984.66;;;4.41;85.12
53932;BME280;39844;52.496;13.482;2024-03-17T03:40:35;101986.31;;;4.39;85.20
53932;BME280;39844;52.496;13.482;2024-03-17T03:43:00;101988.81;;;4.38;84.84
53932;BME280;39844;52.496;13.482;2024-03-17T03:45:25;101988.69;;;4.35;84.76
53932;BME280;39844;52.496;13.482;2024-03-17T03:47:51;101986.94;;;4.34;84.84
53932;BME280;39844;52.496;13.482;2024-03-17T03:50:21;101985.16;;;4.33;85.30
53932;BME280;39844;52.496;13.482;2024-03-17T03:52:47;101995.50;;;4.31;85.42
53932;BME280;39844;52.496;13.482;2024-03-17T03:55:15;101994.47;;;4.28;85.05
53932;BME280;39844;52.496;13.482;2024-03-17T03:57:41;102000.50;;;4.27;84.72
53932;BME280;39844;52.496;13.482;2024-03-17T04:00:07;101998.72;;;4.26;84.93
53932;BME280;39844;52.496;13.482;2024-03-17T04:02:32;101997.06;;;4.28;86.00
53932;BME280;39844;52.496;13.482;2024-03-17T04:04:57;101993.66;;;4.29;85.66
53932;BME280;39844;52.496;13.482;2024-03-17T04:07:23;102000.56;;;4.28;85.55
53932;BME280;39844;52.496;13.482;2024-03-17T04:09:48;101995.31;;;4.27;86.39
53932;BME280;39844;52.496;13.482;2024-03-17T04:12:13;101981.34;;;4.25;86.87
53932;BME280;39844;52.496;13.482;2024-03-17T04:14:39;101996.06;;;4.24;86.32
53932;BME280;39844;52.496;13.482;2024-03-17T04:17:04;101992.50;;;4.22;86.55
53932;BME280;39844;52.496;13.482;2024-03-17T04:19:29;101992.38;;;4.19;87.19
53932;BME280;39844;52.496;13.482;2024-03-17T04:21:55;101994.91;;;4.18;86.69
53932;BME280;39844;52.496;13.482;2024-03-17T04:24:20;101995.75;;;4.17;87.70
53932;BME280;39844;52.496;13.482;2024-03-17T04:26:45;102006.94;;;4.16;87.74
53932;BME280;39844;52.496;13.482;2024-03-17T04:29:11;102004.34;;;4.16;87.44
53932;BME280;39844;52.496;13.482;2024-03-17T04:31:36;102005.16;;;4.15;88.41
53932;BME280;39844;52.496;13.482;2024-03-17T04:34:02;101998.22;;;4.14;88.60
53932;BME280;39844;52.496;13.482;2024-03-17T04:36:27;101996.41;;;4.13;88.87
53932;BME280;39844;52.496;13.482;2024-03-17T04:38:52;102003.28;;;4.11;89.96
53932;BME280;39844;52.496;13.482;2024-03-17T04:41:18;102012.84;;;4.12;89.51
53932;BME280;39844;52.496;13.482;2024-03-17T04:43:43;102005.81;;;4.09;89.61
53932;BME280;39844;52.496;13.482;2024-03-17T04:46:08;102004.78;;;4.06;89.93
53932;BME280;39844;52.496;13.482;2024-03-17T04:48:34;102015.19;;;4.06;90.77
53932;BME280;39844;52.496;13.482;2024-03-17T04:50:59;102019.47;;;4.05;91.20
53932;BME280;39844;52.496;13.482;2024-03-17T04:53:25;102021.19;;;4.05;91.12
53932;BME280;39844;52.496;13.482;2024-03-17T04:56:03;102018.47;;;4.02;91.15
53932;BME280;39844;52.496;13.482;2024-03-17T04:58:29;102027.09;;;4.01;90.93
53932;BME280;39844;52.496;13.482;2024-03-17T05:00:55;102024.41;;;3.99;90.05
53932;BME280;39844;52.496;13.482;2024-03-17T05:03:20;102029.53;;;3.98;89.81
53932;BME280;39844;52.496;13.482;2024-03-17T05:05:45;102029.53;;;3.98;90.75
53932;BME280;39844;52.496;13.482;2024-03-17T05:08:11;102027.84;;;3.98;89.96
53932;BME280;39844;52.496;13.482;2024-03-17T05:10:36;102024.34;;;3.98;90.21
53932;BME280;39844;52.496;13.482;2024-03-17T05:13:01;102027.75;;;3.97;90.38
53932;BME280;39844;52.496;13.482;2024-03-17T05:15:27;102019.91;;;3.95;89.67
53932;BME280;39844;52.496;13.482;2024-03-17T05:17:52;102020.72;;;3.94;89.80
53932;BME280;39844;52.496;13.482;2024-03-17T05:20:17;102010.22;;;3.91;88.30
53932;BME280;39844;52.496;13.482;2024-03-17T05:22:43;102023.13;;;3.90;88.02
53932;BME280;39844;52.496;13.482;2024-03-17T05:25:08;102016.97;;;3.88;88.00
53932;BME280;39844;52.496;13.482;2024-03-17T05:27:33;102030.84;;;3.88;87.84
53932;BME280;39844;52.496;13.482;2024-03-17T05:29:59;102027.41;;;3.89;87.90
53932;BME280;39844;52.496;13.482;2024-03-17T05:32:24;102026.41;;;3.86;87.97
53932;BME280;39844;52.496;13.482;2024-03-17T05:34:49;102039.44;;;3.87;88.31
53932;BME280;39844;52.496;13.482;2024-03-17T05:37:14;102047.25;;;3.87;88.28
53932;BME280;39844;52.496;13.482;2024-03-17T05:39:40;102049.84;;;3.87;88.03
53932;BME280;39844;52.496;13.482;2024-03-17T05:42:05;102048.28;;;3.91;89.32
53932;BME280;39844;52.496;13.482;2024-03-17T05:44:31;102050.13;;;3.93;89.66
53932;BME280;39844;52.496;13.482;2024-03-17T05:46:56;102047.59;;;3.95;89.62
53932;BME280;39844;52.496;13.482;2024-03-17T05:49:22;102033.78;;;3.96;89.26
53932;BME280;39844;52.496;13.482;2024-03-17T05:51:47;102043.34;;;3.97;88.62
53932;BME280;39844;52.496;13.482;2024-03-17T05:54:12;102045.06;;;3.96;87.93
53932;BME280;39844;52.496;13.482;2024-03-17T05:56:38;102056.31;;;3.97;87.43
53932;BME280;39844;52.496;13.482;2024-03-17T05:59:03;102054.63;;;3.97;87.63
53932;BME280;39844;52.496;13.482;2024-03-17T06:01:28;102055.56;;;3.99;86.81
53932;BME280;39844;52.496;13.482;2024-03-17T06:03:54;102057.44;;;4.02;86.70
53932;BME280;39844;52.496;13.482;2024-03-17T06:06:19;102060.16;;;4.05;86.47
53932;BME280;39844;52.496;13.482;2024-03-17T06:08:44;102068.94;;;4.07;86.11
53932;BME280;39844;52.496;13.482;2024-03-17T06:11:10;102068.94;;;4.07;85.89
53932;BME280;39844;52.496;13.482;2024-03-17T06:13:35;102075.06;;;4.09;86.95
53932;BME280;39844;52.496;13.482;2024-03-17T06:16:04;102070.00;;;4.12;87.47
53932;BME280;39844;52.496;13.482;2024-03-17T06:18:30;102079.50;;;4.11;87.25
53932;BME280;39844;52.496;13.482;2024-03-17T06:20:55;102073.56;;;4.14;87.79
53932;BME280;39844;52.496;13.482;2024-03-17T06:23:20;102072.72;;;4.15;87.88
53932;BME280;39844;52.496;13.482;2024-03-17T06:25:48;102081.50;;;4.17;88.56
53932;BME280;39844;52.496;13.482;2024-03-17T06:28:15;102078.94;;;4.18;88.12
53932;BME280;39844;52.496;13.482;2024-03-17T06:30:41;102082.34;;;4.17;87.04
53932;BME280;39844;52.496;13.482;2024-03-17T06:33:12;102088.44;;;4.18;87.10
53932;BME280;39844;52.496;13.482;2024-03-17T06:35:37;102088.53;;;4.19;86.30
53932;BME280;39844;52.496;13.482;2024-03-17T06:38:03;102098.22;;;4.23;87.05
53932;BME280;39844;52.496;13.482;2024-03-17T06:40:28;102090.63;;;4.28;88.56
53932;BME280;39844;52.496;13.482;2024-03-17T06:42:54;102097.59;;;4.29;87.34
53932;BME280;39844;52.496;13.482;2024-03-17T06:45:19;102090.75;;;4.31;86.86
53932;BME280;39844;52.496;13.482;2024-03-17T06:47:45;102097.94;;;4.36;87.79
53932;BME280;39844;52.496;13.482;2024-03-17T06:50:10;102107.50;;;4.37;85.58
53932;BME280;39844;52.496;13.482;2024-03-17T06:52:36;102104.97;;;4.39;85.81
53932;BME280;39844;52.496;13.482;2024-03-17T06:55:01;102107.72;;;4.42;85.69
53932;BME280;39844;52.496;13.482;2024-03-17T06:57:27;102112.22;;;4.46;84.77
53932;BME280;39844;52.496;13.482;2024-03-17T06:59:52;102114.06;;;4.48;84.94
53932;BME280;39844;52.496;13.482;2024-03-17T07:02:17;102118.53;;;4.53;83.99
53932;BME280;39844;52.496;13.482;2024-03-17T07:04:44;102119.56;;;4.56;84.11
53932;BME280;39844;52.496;13.482;2024-03-17T07:07:09;102121.59;;;4.63;84.38
53932;BME280;39844;52.496;13.482;2024-03-17T07:09:34;102131.47;;;4.70;84.14
53932;BME280;39844;52.496;13.482;2024-03-17T07:12:00;102131.53;;;4.72;81.50
53932;BME280;39844;52.496;13.482;2024-03-17T07:14:25;102131.78;;;4.78;81.19
53932;BME280;39844;52.496;13.482;2024-03-17T07:16:50;102136.22;;;4.80;80.72
53932;BME280;39844;52.496;13.482;2024-03-17T07:19:16;102136.41;;;4.85;81.20
53932;BME280;39844;52.496;13.482;2024-03-17T07:21:41;102142.84;;;4.93;80.69
53932;BME280;39844;52.496;13.482;2024-03-17T07:24:06;102138.75;;;4.99;80.81
53932;BME280;39844;52.496;13.482;2024-03-17T07:26:32;102143.34;;;5.05;80.25
53932;BME280;39844;52.496;13.482;2024-03-17T07:28:57;102140.97;;;5.11;79.69
53932;BME280;39844;52.496;13.482;2024-03-17T07:31:22;102130.75;;;5.16;79.01
53932;BME280;39844;52.496;13.482;2024-03-17T07:33:48;102132.78;;;5.23;79.48
53932;BME280;39844;52.496;13.482;2024-03-17T07:36:13;102145.38;;;5.34;79.58
53932;BME280;39844;52.496;13.482;2024-03-17T07:38:38;102143.03;;;5.40;77.93
53932;BME280;39844;52.496;13.482;2024-03-17T07:41:05;102151.78;;;5.42;76.47
53932;BME280;39844;52.496;13.482;2024-03-17T07:43:35;102152.81;;;5.46;76.55
53932;BME280;39844;52.496;13.482;2024-03-17T07:46:10;102150.41;;;5.52;77.45
53932;BME280;39844;52.496;13.482;2024-03-17T07:48:36;102163.69;;;5.58;76.35
53932;BME280;39844;52.496;13.482;2024-03-17T07:51:04;102163.81;;;5.61;76.41
53932;BME280;39844;52.496;13.482;2024-03-17T07:53:33;102158.75;;;5.64;75.59
53932;BME280;39844;52.496;13.482;2024-03-17T07:56:05;102158.84;;;5.67;75.79
53932;BME280;39844;52.496;13.482;2024-03-17T07:58:32;102159.97;;;5.73;76.08
53932;BME280;39844;52.496;13.482;2024-03-17T08:00:58;102163.66;;;5.79;75.68
53932;BME280;39844;52.496;13.482;2024-03-17T08:03:24;102163.66;;;5.79;74.14
53932;BME280;39844;52.496;13.482;2024-03-17T08:05:49;102165.53;;;5.83;73.87
53932;BME280;39844;52.496;13.482;2024-03-17T08:08:16;102151.69;;;5.84;72.80
53932;BME280;39844;52.496;13.482;2024-03-17T08:10:41;102158.59;;;5.83;73.08
53932;BME280;39844;52.496;13.482;2024-03-17T08:13:07;102161.41;;;5.88;71.92
53932;BME280;39844;52.496;13.482;2024-03-17T08:15:32;102152.72;;;5.87;72.48
53932;BME280;39844;52.496;13.482;2024-03-17T08:17:57;102154.66;;;5.93;72.34
53932;BME280;39844;52.496;13.482;2024-03-17T08:20:26;102150.56;;;5.99;72.56
53932;BME280;39844;52.496;13.482;2024-03-17T08:22:51;102152.69;;;6.09;72.19
53932;BME280;39844;52.496;13.482;2024-03-17T08:25:16;102144.09;;;6.12;71.41
53932;BME280;39844;52.496;13.482;2024-03-17T08:27:42;102145.16;;;6.17;71.31
53932;BME280;39844;52.496;13.482;2024-03-17T08:30:08;102144.31;;;6.18;70.79
53932;BME280;39844;52.496;13.482;2024-03-17T08:32:34;102143.53;;;6.20;70.85
53932;BME280;39844;52.496;13.482;2024-03-17T08:34:59;102144.66;;;6.27;71.54
53932;BME280;39844;52.496;13.482;2024-03-17T08:37:24;102145.63;;;6.30;71.54
53932;BME280;39844;52.496;13.482;2024-03-17T08:39:50;102144.88;;;6.33;70.06
53932;BME280;39844;52.496;13.482;2024-03-17T08:42:15;102147.66;;;6.38;70.41
53932;BME280;39844;52.496;13.482;2024-03-17T08:44:40;102151.44;;;6.46;69.84
53932;BME280;39844;52.496;13.482;2024-03-17T08:47:06;102144.66;;;6.51;68.86
53932;BME280;39844;52.496;13.482;2024-03-17T08:49:31;102144.13;;;6.61;70.00
53932;BME280;39844;52.496;13.482;2024-03-17T08:51:56;102154.88;;;6.70;69.59
53932;BME280;39844;52.496;13.482;2024-03-17T08:54:22;102152.28;;;6.70;68.58
53932;BME280;39844;52.496;13.482;2024-03-17T08:56:47;102156.66;;;6.71;67.28
53932;BME280;39844;52.496;13.482;2024-03-17T08:59:12;102160.25;;;6.74;66.75
53932;BME280;39844;52.496;13.482;2024-03-17T09:01:38;102159.34;;;6.74;66.54
53932;BME280;39844;52.496;13.482;2024-03-17T09:04:03;102166.25;;;6.72;66.37
53932;BME280;39844;52.496;13.482;2024-03-17T09:06:29;102170.66;;;6.73;65.93
53932;BME280;39844;52.496;13.482;2024-03-17T09:08:54;102169.72;;;6.71;64.38
53932;BME280;39844;52.496;13.482;2024-03-17T09:11:19;102164.28;;;6.65;64.20
53932;BME280;39844;52.496;13.482;2024-03-17T09:13:44;102153.84;;;6.65;64.98
53932;BME280;39844;52.496;13.482;2024-03-17T09:16:10;102160.09;;;6.70;65.42
53932;BME280;39844;52.496;13.482;2024-03-17T09:18:35;102166.88;;;6.65;64.80
53932;BME280;39844;52.496;13.482;2024-03-17T09:21:03;102166.50;;;6.54;64.28
53932;BME280;39844;52.496;13.482;2024-03-17T09:23:31;102162.06;;;6.52;65.83
53932;BME280;39844;52.496;13.482;2024-03-17T09:26:02;102154.38;;;6.56;65.67
53932;BME280;39844;52.496;13.482;2024-03-17T09:28:31;102154.75;;;6.67;66.80
53932;BME280;39844;52.496;13.482;2024-03-17T09:30:58;102155.69;;;6.69;66.75
53932;BME280;39844;52.496;13.482;2024-03-17T09:33:26;102159.44;;;6.75;66.85
53932;BME280;39844;52.496;13.482;2024-03-17T09:35:58;102159.19;;;6.94;68.20
53932;BME280;39844;52.496;13.482;2024-03-17T09:38:24;102159.03;;;7.15;66.42
53932;BME280;39844;52.496;13.482;2024-03-17T09:40:50;102161.09;;;7.25;65.73
53932;BME280;39844;52.496;13.482;2024-03-17T09:43:16;102160.31;;;7.28;64.10
53932;BME280;39844;52.496;13.482;2024-03-17T09:45:41;102165.66;;;7.31;65.12
53932;BME280;39844;52.496;13.482;2024-03-17T09:48:06;102164.06;;;7.36;63.10
53932;BME280;39844;52.496;13.482;2024-03-17T09:50:33;102161.41;;;7.34;62.85
53932;BME280;39844;52.496;13.482;2024-03-17T09:52:59;102163.31;;;7.40;64.64
53932;BME280;39844;52.496;13.482;2024-03-17T09:55:26;102164.41;;;7.46;64.05
53932;BME280;39844;52.496;13.482;2024-03-17T09:57:52;102163.16;;;7.62;65.09
53932;BME280;39844;52.496;13.482;2024-03-17T10:00:17;102156.41;;;7.69;62.44
53932;BME280;39844;52.496;13.482;2024-03-17T10:02:44;102156.41;;;7.69;61.24
53932;BME280;39844;52.496;13.482;2024-03-17T10:05:20;102151.81;;;7.61;61.09
53932;BME280;39844;52.496;13.482;2024-03-17T10:07:46;102143.16;;;7.62;62.08
53932;BME280;39844;52.496;13.482;2024-03-17T10:10:12;102140.59;;;7.64;61.99
53932;BME280;39844;52.496;13.482;2024-03-17T10:12:38;102142.50;;;7.70;60.69
53932;BME280;39844;52.496;13.482;2024-03-17T10:15:03;102141.72;;;7.72;62.53
53932;BME280;39844;52.496;13.482;2024-03-17T10:17:30;102145.38;;;7.79;62.09
53932;BME280;39844;52.496;13.482;2024-03-17T10:22:36;102138.72;;;7.60;61.41
53932;BME280;39844;52.496;13.482;2024-03-17T10:25:01;102143.06;;;7.59;61.23
53932;BME280;39844;52.496;13.482;2024-03-17T10:27:26;102147.53;;;7.63;61.54
53932;BME280;39844;52.496;13.482;2024-03-17T10:29:52;102145.38;;;7.79;61.04
53932;BME280;39844;52.496;13.482;2024-03-17T10:32:19;102150.84;;;7.86;61.13
53932;BME280;39844;52.496;13.482;2024-03-17T10:34:44;102145.72;;;7.91;60.36
53932;BME280;39844;52.496;13.482;2024-03-17T10:37:13;102142.25;;;7.90;60.22
53932;BME280;39844;52.496;13.482;2024-03-17T10:39:42;102144.25;;;7.99;61.91
53932;BME280;39844;52.496;13.482;2024-03-17T10:42:10;102147.13;;;8.08;60.24
53932;BME280;39844;52.496;13.482;2024-03-17T10:44:37;102140.41;;;8.16;59.97
53932;BME280;39844;52.496;13.482;2024-03-17T10:47:03;102150.88;;;8.16;59.43
53932;BME280;39844;52.496;13.482;2024-03-17T10:49:33;102148.88;;;8.07;58.50
53932;BME280;39844;52.496;13.482;2024-03-17T10:52:07;102149.56;;;8.02;59.36
53932;BME280;39844;52.496;13.482;2024-03-17T10:54:33;102151.34;;;8.03;60.39
53932;BME280;39844;52.496;13.482;2024-03-17T11:00:05;102150.34;;;7.99;58.91
53932;BME280;39844;52.496;13.482;2024-03-17T11:02:32;102148.56;;;7.98;57.59
53932;BME280;39844;52.496;13.482;2024-03-17T11:04:59;102155.50;;;7.96;58.91
53932;BME280;39844;52.496;13.482;2024-03-17T11:07:25;102159.56;;;7.87;58.61
53932;BME280;39844;52.496;13.482;2024-03-17T11:09:52;102148.97;;;7.82;58.82
53932;BME280;39844;52.496;13.482;2024-03-17T11:12:41;102148.06;;;7.80;58.69
53932;BME280;39844;52.496;13.482;2024-03-17T11:17:45;102158.50;;;8.08;56.85
53932;BME280;39844;52.496;13.482;2024-03-17T11:20:24;102148.19;;;8.14;56.04
53932;BME280;39844;52.496;13.482;2024-03-17T11:22:52;102145.06;;;8.26;56.04
53932;BME280;39844;52.496;13.482;2024-03-17T11:27:52;102143.38;;;8.28;55.58
53932;BME280;39844;52.496;13.482;2024-03-17T11:38:59;102127.84;;;8.34;53.29
53932;BME280;39844;52.496;13.482;2024-03-17T11:46:43;102129.81;;;8.74;53.14
53932;BME280;39844;52.496;13.482;2024-03-17T11:49:21;102129.72;;;9.05;52.55
53932;BME280;39844;52.496;13.482;2024-03-17T11:51:47;102129.03;;;9.48;51.80
53932;BME280;39844;52.496;13.482;2024-03-17T11:54:15;102129.38;;;9.63;50.16
53932;BME280;39844;52.496;13.482;2024-03-17T11:56:40;102127.94;;;9.77;49.93
53932;BME280;39844;52.496;13.482;2024-03-17T11:59:06;102129.16;;;9.93;48.51
53932;BME280;39844;52.496;13.482;2024-03-17T12:01:31;102122.09;;;10.31;49.50
53932;BME280;39844;52.496;13.482;2024-03-17T12:03:57;102136.75;;;10.64;47.94
53932;BME280;39844;52.496;13.482;2024-03-17T12:06:23;102120.53;;;10.88;47.37
53932;BME280;39844;52.496;13.482;2024-03-17T12:08:49;102119.88;;;11.01;47.54
53932;BME280;39844;52.496;13.482;2024-03-17T12:11:17;102120.28;;;11.25;47.61
53932;BME280;39844;52.496;13.482;2024-03-17T12:13:43;102111.97;;;11.55;46.38
53932;BME280;39844;52.496;13.482;2024-03-17T12:16:12;102101.97;;;11.93;47.55
53932;BME280;39844;52.496;13.482;2024-03-17T12:18:37;102111.94;;;12.18;45.59
53932;BME280;39844;52.496;13.482;2024-03-17T12:21:03;102108.22;;;12.02;43.98
53932;BME280;39844;52.496;13.482;2024-03-17T12:23:28;102098.44;;;11.91;43.69
53932;BME280;39844;52.496;13.482;2024-03-17T12:25:54;102104.56;;;11.88;44.33
53932;BME280;39844;52.496;13.482;2024-03-17T12:28:20;102098.50;;;11.94;43.79
53932;BME280;39844;52.496;13.482;2024-03-17T12:30:45;102098.69;;;12.11;44.97
53932;BME280;39844;52.496;13.482;2024-03-17T12:33:11;102092.09;;;12.47;43.90
53932;BME280;39844;52.496;13.482;2024-03-17T12:35:38;102093.84;;;12.48;42.50
53932;BME280;39844;52.496;13.482;2024-03-17T12:38:21;102078.81;;;12.38;42.13
53932;BME280;39844;52.496;13.482;2024-03-17T12:40:49;102073.63;;;12.44;42.54
53932;BME280;39844;52.496;13.482;2024-03-17T12:43:15;102081.09;;;12.08;42.78
53932;BME280;39844;52.496;13.482;2024-03-17T12:45:40;102080.97;;;11.96;42.96
53932;BME280;39844;52.496;13.482;2024-03-17T12:48:12;102070.03;;;11.67;45.09
53932;BME280;39844;52.496;13.482;2024-03-17T12:50:44;102074.00;;;11.99;45.04
53932;BME280;39844;52.496;13.482;2024-03-17T12:53:15;102072.53;;;12.26;44.80
53932;BME280;39844;52.496;13.482;2024-03-17T12:55:41;102077.53;;;12.03;42.93
53932;BME280;39844;52.496;13.482;2024-03-17T12:58:08;102076.31;;;11.74;43.03
53932;BME280;39844;52.496;13.482;2024-03-17T13:00:33;102080.28;;;11.46;45.07
53932;BME280;39844;52.496;13.482;2024-03-17T13:03:00;102085.22;;;11.26;45.10
53932;BME280;39844;52.496;13.482;2024-03-17T13:05:25;102084.16;;;11.14;45.11
53932;BME280;39844;52.496;13.482;2024-03-17T13:07:51;102085.53;;;10.89;45.75
53932;BME280;39844;52.496;13.482;2024-03-17T13:10:18;102086.22;;;10.79;46.30